createdAt,value
2019-05-28T00:01:52.983Z,60.40
2019-05-28T00:04:21.422Z,61.00
2019-05-28T00:06:49.843Z,61.80
2019-05-28T00:09:20.196Z,62.20
2019-05-28T00:11:48.711Z,62.50
2019-05-28T00:14:17.155Z,61.60
2019-05-28T00:16:45.585Z,62.80
2019-05-28T00:19:14.031Z,63.20
2019-05-28T00:21:42.462Z,62.00
2019-05-28T00:24:11.045Z,63.00
2019-05-28T00:26:39.459Z,63.60
2019-05-28T00:29:08.135Z,63.00
2019-05-28T00:31:36.570Z,62.40
2019-05-28T00:34:05.326Z,62.00
2019-05-28T00:36:33.742Z,61.60
2019-05-28T00:39:02.181Z,62.00
2019-05-28T00:41:30.680Z,61.70
2019-05-28T00:43:59.170Z,61.80
2019-05-28T00:46:27.710Z,60.90
2019-05-28T00:48:56.151Z,61.20
2019-05-28T00:51:24.583Z,61.30
2019-05-28T00:53:53.007Z,62.10
2019-05-28T00:56:21.801Z,61.70
2019-05-28T00:58:50.694Z,61.30
2019-05-28T01:01:19.391Z,61.40
2019-05-28T01:03:47.820Z,61.70
2019-05-28T01:06:16.276Z,61.10
2019-05-28T01:08:44.695Z,61.20
2019-05-28T01:11:13.215Z,61.00
2019-05-28T01:13:41.647Z,61.80
2019-05-28T01:16:10.170Z,62.40
2019-05-28T01:18:38.608Z,63.40
2019-05-28T01:21:07.047Z,63.90
2019-05-28T01:23:35.473Z,63.90
2019-05-28T01:26:03.991Z,63.20
2019-05-28T01:28:32.486Z,61.70
2019-05-28T01:31:01.281Z,61.70
2019-05-28T01:33:29.891Z,61.90
2019-05-28T01:35:58.347Z,62.20
2019-05-28T01:38:26.763Z,62.40
2019-05-28T01:40:55.199Z,62.20
2019-05-28T01:43:23.624Z,61.30
2019-05-28T01:45:52.082Z,61.50
2019-05-28T01:48:20.519Z,61.60
2019-05-28T01:50:48.942Z,61.90
2019-05-28T01:53:17.379Z,62.50
2019-05-28T01:55:45.833Z,62.80
2019-05-28T01:58:14.248Z,62.00
2019-05-28T02:00:42.672Z,62.50
2019-05-28T02:03:11.116Z,63.00
2019-05-28T02:05:39.536Z,63.80
2019-05-28T02:08:07.987Z,63.40
2019-05-28T02:10:36.419Z,64.10
2019-05-28T02:13:05.326Z,64.90
2019-05-28T02:15:33.740Z,65.50
2019-05-28T02:18:02.266Z,65.20
2019-05-28T02:20:30.683Z,65.30
2019-05-28T02:22:59.130Z,65.60
2019-05-28T02:25:27.559Z,65.60
2019-05-28T02:27:55.999Z,65.30
2019-05-28T02:30:24.964Z,65.10
2019-05-28T02:32:53.962Z,65.30
2019-05-28T02:35:22.722Z,65.40
2019-05-28T02:37:51.243Z,66.00
2019-05-28T02:40:20.112Z,65.90
2019-05-28T02:42:48.626Z,65.70
2019-05-28T02:45:18.004Z,64.70
2019-05-28T02:47:46.576Z,63.70
2019-05-28T02:50:18.097Z,62.40
2019-05-28T02:52:47.294Z,63.10
2019-05-28T02:55:16.864Z,63.20
2019-05-28T02:57:47.023Z,63.40
2019-05-28T03:00:17.711Z,63.10
2019-05-28T03:02:49.274Z,62.50
2019-05-28T03:05:20.090Z,62.70
2019-05-28T03:07:50.055Z,63.00
2019-05-28T03:11:01.844Z,64.10
2019-05-28T03:13:08.988Z,64.00
2019-05-28T03:15:40.499Z,65.50
2019-05-28T03:18:10.974Z,64.10
2019-05-28T03:20:41.151Z,64.00
2019-05-28T03:23:11.402Z,63.90
2019-05-28T03:25:40.584Z,63.70
2019-05-28T03:28:09.187Z,63.80
2019-05-28T03:30:37.863Z,64.00
2019-05-28T03:33:06.548Z,64.70
2019-05-28T03:35:36.704Z,64.90
2019-05-28T03:38:05.593Z,65.20
2019-05-28T03:40:47.820Z,65.20
2019-05-28T03:43:16.243Z,65.50
2019-05-28T03:45:44.957Z,64.50
2019-05-28T03:48:13.752Z,64.90
2019-05-28T03:50:42.182Z,65.20
2019-05-28T03:53:10.603Z,64.10
2019-05-28T03:55:39.655Z,64.30
2019-05-28T03:58:08.189Z,64.30
2019-05-28T04:00:36.645Z,64.50
2019-05-28T04:03:05.307Z,64.90
2019-05-28T04:05:33.831Z,65.80
2019-05-28T04:08:02.306Z,65.40
2019-05-28T04:10:30.796Z,65.20
2019-05-28T04:12:59.221Z,66.00
2019-05-28T04:15:27.659Z,65.20
2019-05-28T04:17:56.080Z,65.20
2019-05-28T04:20:24.538Z,64.90
2019-05-28T04:22:52.964Z,65.20
2019-05-28T04:25:21.406Z,66.10
2019-05-28T04:27:49.827Z,66.70
2019-05-28T04:30:18.662Z,66.80
2019-05-28T04:32:47.148Z,66.80
2019-05-28T04:35:15.765Z,69.10
2019-05-28T04:37:44.271Z,68.10
2019-05-28T04:40:12.863Z,69.20
2019-05-28T04:42:41.304Z,69.30
2019-05-28T04:45:10.170Z,68.90
2019-05-28T04:47:38.607Z,71.40
2019-05-28T04:50:07.469Z,72.70
2019-05-28T04:52:35.931Z,72.50
2019-05-28T04:55:05.115Z,74.10
2019-05-28T04:57:33.579Z,74.50
2019-05-28T05:00:02.003Z,75.60
2019-05-28T05:02:30.723Z,75.70
2019-05-28T05:04:59.150Z,75.90
2019-05-28T05:07:27.684Z,77.20
2019-05-28T05:13:13.252Z,78.10
2019-05-28T05:15:41.693Z,79.30
2019-05-28T05:18:10.208Z,80.10
2019-05-28T05:20:38.691Z,79.20
2019-05-28T05:23:07.133Z,78.80
2019-05-28T05:25:35.569Z,79.30
2019-05-28T05:28:04.229Z,77.10
2019-05-28T05:30:32.647Z,76.50
2019-05-28T05:33:18.670Z,76.90
2019-05-28T05:35:31.461Z,76.40
2019-05-28T05:38:00.123Z,76.60
2019-05-28T05:40:28.624Z,75.90
2019-05-28T05:42:57.081Z,76.50
2019-05-28T05:45:25.582Z,77.00
2019-05-28T05:47:54.034Z,77.20
2019-05-28T05:50:22.731Z,76.60
2019-05-28T05:52:51.309Z,76.70
2019-05-28T05:55:20.401Z,76.40
2019-05-28T05:57:48.908Z,75.80
2019-05-28T06:00:18.182Z,75.00
2019-05-28T06:02:46.637Z,73.40
2019-05-28T06:05:15.403Z,74.10
2019-05-28T06:07:44.113Z,74.00
2019-05-28T06:10:13.238Z,75.50
2019-05-28T06:12:41.663Z,75.70
2019-05-28T06:15:10.378Z,74.90
2019-05-28T06:17:38.872Z,75.40
2019-05-28T06:20:09.503Z,73.20
2019-05-28T06:22:38.011Z,71.60
2019-05-28T06:25:07.119Z,70.20
2019-05-28T06:27:35.624Z,72.00
2019-05-28T06:30:08.732Z,72.00
2019-05-28T06:32:38.441Z,71.00
2019-05-28T06:35:07.811Z,70.40
2019-05-28T06:37:36.242Z,70.40
2019-05-28T06:40:07.333Z,71.60
2019-05-28T06:42:39.401Z,70.70
2019-05-28T06:45:07.587Z,69.60
2019-05-28T06:47:36.013Z,69.10
2019-05-28T06:50:07.707Z,70.00
2019-05-28T06:52:36.261Z,70.50
2019-05-28T06:55:05.505Z,68.40
2019-05-28T06:57:33.942Z,66.70
2019-05-28T07:00:02.385Z,67.20
2019-05-28T07:02:30.833Z,66.90
2019-05-28T07:05:01.020Z,65.90
2019-05-28T07:07:29.446Z,68.20
2019-05-28T07:09:57.972Z,66.80
2019-05-28T07:12:26.409Z,67.70
2019-05-28T07:14:55.010Z,67.20
2019-05-28T07:17:23.515Z,67.70
2019-05-28T07:19:52.063Z,67.90
2019-05-28T07:22:20.494Z,67.30
2019-05-28T07:24:48.950Z,66.00
2019-05-28T07:27:17.404Z,65.80
2019-05-28T07:29:45.833Z,62.90
2019-05-28T07:32:14.278Z,61.90
2019-05-28T07:34:42.702Z,60.20
2019-05-28T07:37:11.151Z,61.30
2019-05-28T07:39:39.925Z,61.30
2019-05-28T07:42:08.575Z,60.00
2019-05-28T07:44:37.143Z,54.00
2019-05-28T07:47:05.582Z,53.20
2019-05-28T07:49:34.007Z,51.50
2019-05-28T07:52:02.455Z,55.90
2019-05-28T07:54:30.886Z,52.80
2019-05-28T07:56:59.436Z,55.40
2019-05-28T07:59:27.937Z,50.40
2019-05-28T08:01:56.459Z,46.50
2019-05-28T08:04:24.935Z,53.80
2019-05-28T08:06:55.164Z,54.50
2019-05-28T08:09:23.615Z,49.00
2019-05-28T08:11:52.058Z,50.30
2019-05-28T08:14:20.615Z,51.60
2019-05-28T08:16:52.784Z,52.20
2019-05-28T08:19:19.204Z,51.80
2019-05-28T08:21:47.720Z,56.30
2019-05-28T08:24:16.213Z,52.00
2019-05-28T08:26:44.651Z,50.70
2019-05-28T08:29:13.081Z,56.30
2019-05-28T08:31:41.523Z,50.30
2019-05-28T08:34:09.951Z,51.20
2019-05-28T08:36:38.399Z,50.10
2019-05-28T08:39:07.759Z,48.40
2019-05-28T08:41:36.255Z,51.20
2019-05-28T08:44:06.397Z,50.30
2019-05-28T08:46:34.887Z,49.60
2019-05-28T08:49:03.517Z,45.20
2019-05-28T08:51:31.980Z,47.00
2019-05-28T08:54:00.451Z,44.70
2019-05-28T08:56:28.953Z,45.00
2019-05-28T08:58:57.568Z,49.90
2019-05-28T09:01:27.779Z,49.90
2019-05-28T09:03:56.210Z,49.50
2019-05-28T09:06:27.103Z,45.40
2019-05-28T09:08:54.839Z,46.60
2019-05-28T09:11:23.334Z,45.60
2019-05-28T09:13:51.907Z,44.60
2019-05-28T09:16:20.413Z,42.10
2019-05-28T09:18:48.850Z,43.30
2019-05-28T09:21:18.816Z,42.10
2019-05-28T09:23:47.289Z,43.00
2019-05-28T09:26:15.707Z,44.00
2019-05-28T09:28:44.190Z,42.40
2019-05-28T09:31:12.688Z,41.70
2019-05-28T09:33:41.255Z,42.00
2019-05-28T09:36:09.786Z,45.10
2019-05-28T09:38:38.282Z,46.50
2019-05-28T09:41:08.260Z,48.10
2019-05-28T09:43:36.691Z,51.80
2019-05-28T09:46:05.275Z,58.20
2019-05-28T09:48:33.796Z,60.90
2019-05-28T09:51:02.328Z,60.10
2019-05-28T09:53:30.737Z,60.10
2019-05-28T09:55:59.267Z,53.80
2019-05-28T09:58:27.671Z,53.50
2019-05-28T10:00:58.585Z,48.80
2019-05-28T10:03:28.051Z,51.20
2019-05-28T10:06:07.057Z,51.50
2019-05-28T10:08:26.650Z,47.50
2019-05-28T10:10:55.078Z,55.20
2019-05-28T10:13:38.417Z,57.40
2019-05-28T10:15:53.681Z,59.00
2019-05-28T10:18:22.256Z,53.50
2019-05-28T10:20:50.771Z,54.10
2019-05-28T10:23:19.267Z,58.40
2019-05-28T10:25:47.727Z,52.30
2019-05-28T10:28:16.233Z,53.00
2019-05-28T10:30:44.671Z,47.50
2019-05-28T10:33:13.146Z,43.90
2019-05-28T10:35:41.653Z,42.40
2019-05-28T10:38:15.172Z,44.10
2019-05-28T10:40:40.384Z,41.70
2019-05-28T10:43:08.831Z,40.90
2019-05-28T10:45:37.397Z,40.90
2019-05-28T10:48:06.037Z,38.60
2019-05-28T10:50:34.667Z,41.40
2019-05-28T10:53:03.241Z,42.50
2019-05-28T10:55:31.703Z,40.80
2019-05-28T10:58:00.133Z,38.80
2019-05-28T11:00:28.901Z,40.90
2019-05-28T11:02:57.346Z,38.90
2019-05-28T11:05:26.020Z,39.10
2019-05-28T11:07:54.470Z,40.40
2019-05-28T11:10:24.800Z,42.00
2019-05-28T11:12:53.623Z,38.80
2019-05-28T11:15:24.200Z,35.80
2019-05-28T11:17:52.752Z,35.70
2019-05-28T11:20:22.031Z,35.20
2019-05-28T11:22:50.560Z,37.20
2019-05-28T11:25:20.522Z,38.00
2019-05-28T11:27:48.959Z,35.30
2019-05-28T11:30:18.317Z,36.60
2019-05-28T11:32:46.835Z,38.00
2019-05-28T11:35:17.449Z,35.70
2019-05-28T11:37:47.585Z,35.00
2019-05-28T11:40:16.762Z,33.70
2019-05-28T11:42:45.274Z,33.90
2019-05-28T11:45:16.181Z,33.70
2019-05-28T11:47:45.520Z,33.60
2019-05-28T11:50:14.515Z,32.50
2019-05-28T11:52:42.932Z,32.40
2019-05-28T11:55:13.300Z,32.80
2019-05-28T11:57:41.984Z,33.90
2019-05-28T12:00:12.545Z,34.30
2019-05-28T12:02:41.102Z,35.40
2019-05-28T12:05:10.615Z,36.30
2019-05-28T12:07:39.039Z,36.40
2019-05-28T12:10:08.143Z,37.40
2019-05-28T12:12:39.492Z,36.60
2019-05-28T12:15:12.200Z,36.20
2019-05-28T12:17:44.623Z,35.50
2019-05-28T12:20:14.297Z,35.20
2019-05-28T12:22:43.192Z,35.80
2019-05-28T12:25:13.409Z,33.60
2019-05-28T12:27:41.870Z,34.30
2019-05-28T12:30:12.820Z,33.80
2019-05-28T12:32:41.255Z,32.80
2019-05-28T12:35:26.694Z,33.70
2019-05-28T12:37:48.226Z,33.90
2019-05-28T12:40:11.177Z,32.50
2019-05-28T12:42:39.793Z,32.60
2019-05-28T12:45:10.635Z,32.40
2019-05-28T12:47:39.324Z,30.20
2019-05-28T12:50:19.235Z,31.70
2019-05-28T12:52:38.690Z,30.60
2019-05-28T12:55:08.197Z,30.70
2019-05-28T12:57:36.639Z,31.10
2019-05-28T13:00:10.528Z,31.60
2019-05-28T13:02:41.013Z,32.20
2019-05-28T13:05:21.166Z,30.90
2019-05-28T13:08:06.624Z,31.50
2019-05-28T13:10:20.198Z,31.40
2019-05-28T13:12:48.625Z,30.90
2019-05-28T13:15:18.677Z,32.10
2019-05-28T13:17:47.091Z,32.00
2019-05-28T13:20:18.497Z,31.90
2019-05-28T13:22:49.098Z,32.70
2019-05-28T13:25:17.940Z,32.00
2019-05-28T13:27:46.394Z,33.90
2019-05-28T13:30:16.145Z,33.30
2019-05-28T13:32:45.096Z,33.20
2019-05-28T13:35:15.943Z,33.10
2019-05-28T13:37:44.449Z,32.50
2019-05-28T13:40:15.227Z,32.80
2019-05-28T13:42:43.973Z,31.60
2019-05-28T13:45:14.787Z,31.40
2019-05-28T13:47:43.360Z,31.00
2019-05-28T13:50:12.449Z,31.50
2019-05-28T13:52:41.036Z,30.60
2019-05-28T13:55:10.607Z,30.80
2019-05-28T13:57:39.970Z,30.70
2019-05-28T14:00:11.659Z,32.10
2019-05-28T14:02:45.506Z,30.90
2019-05-28T14:05:11.705Z,31.20
2019-05-28T14:07:40.280Z,30.70
2019-05-28T14:10:09.147Z,32.60
2019-05-28T14:12:37.618Z,32.20
2019-05-28T14:15:10.233Z,30.40
2019-05-28T14:17:38.680Z,31.40
2019-05-28T14:20:09.506Z,31.20
2019-05-28T14:22:38.383Z,31.20
2019-05-28T14:25:09.048Z,31.90
2019-05-28T14:27:37.538Z,30.50
2019-05-28T14:30:08.519Z,30.20
2019-05-28T14:32:36.969Z,30.70
2019-05-28T14:35:07.806Z,30.00
2019-05-28T14:37:36.385Z,31.20
2019-05-28T14:40:06.809Z,30.80
2019-05-28T14:42:35.311Z,31.90
2019-05-28T14:45:08.855Z,31.50
2019-05-28T14:47:37.289Z,31.40
2019-05-28T14:50:09.514Z,30.70
2019-05-28T14:52:38.366Z,31.00
2019-05-28T14:55:09.037Z,30.00
2019-05-28T14:57:37.846Z,29.90
2019-05-28T15:00:09.134Z,30.00
2019-05-28T15:02:37.585Z,30.90
2019-05-28T15:05:07.858Z,30.90
2019-05-28T15:07:36.482Z,30.40
2019-05-28T15:10:09.795Z,31.10
2019-05-28T15:12:38.319Z,31.90
2019-05-28T15:15:08.960Z,29.90
2019-05-28T15:17:37.688Z,30.00
2019-05-28T15:20:10.032Z,30.40
2019-05-28T15:22:38.653Z,30.00
2019-05-28T15:25:08.028Z,30.60
2019-05-28T15:27:36.507Z,29.70
2019-05-28T15:30:09.157Z,30.00
2019-05-28T15:32:37.858Z,30.10
2019-05-28T15:35:07.855Z,29.60
2019-05-28T15:37:36.281Z,29.40
2019-05-28T15:40:08.987Z,29.10
2019-05-28T15:42:37.479Z,28.80
2019-05-28T15:45:10.160Z,29.60
2019-05-28T15:47:39.218Z,29.50
2019-05-28T15:50:10.893Z,29.30
2019-05-28T15:52:39.306Z,29.20
2019-05-28T15:55:10.211Z,28.70
2019-05-28T15:57:38.739Z,28.90
2019-05-28T16:00:09.376Z,29.20
2019-05-28T16:02:37.801Z,29.90
2019-05-28T16:05:07.794Z,29.80
2019-05-28T16:07:36.289Z,29.90
2019-05-28T16:10:08.862Z,29.30
2019-05-28T16:12:37.329Z,29.00
2019-05-28T16:15:08.069Z,28.70
2019-05-28T16:17:36.500Z,29.60
2019-05-28T16:20:07.850Z,29.40
2019-05-28T16:22:36.427Z,29.80
2019-05-28T16:25:08.889Z,30.00
2019-05-28T16:27:37.371Z,31.10
2019-05-28T16:30:07.921Z,30.40
2019-05-28T16:32:36.350Z,31.00
2019-05-28T16:35:06.047Z,31.40
2019-05-28T16:37:34.449Z,32.10
2019-05-28T16:40:14.384Z,31.40
2019-05-28T16:42:33.315Z,30.80
2019-05-28T16:45:01.758Z,30.20
2019-05-28T16:47:30.261Z,30.80
2019-05-28T16:49:58.739Z,30.80
2019-05-28T16:52:27.213Z,31.10
2019-05-28T16:54:55.650Z,32.30
2019-05-28T16:57:24.172Z,31.00
2019-05-28T16:59:52.579Z,32.30
2019-05-28T17:02:21.044Z,32.10
2019-05-28T17:04:49.528Z,31.60
2019-05-28T17:07:17.955Z,32.60
2019-05-28T17:09:46.399Z,32.60
2019-05-28T17:12:14.853Z,32.20
2019-05-28T17:14:43.305Z,31.60
2019-05-28T17:17:11.746Z,31.90
2019-05-28T17:19:40.179Z,32.90
2019-05-28T17:22:08.640Z,32.60
2019-05-28T17:24:37.114Z,32.50
2019-05-28T17:27:05.631Z,32.30
2019-05-28T17:29:34.073Z,32.30
2019-05-28T17:32:02.570Z,33.40
2019-05-28T17:34:30.999Z,32.10
2019-05-28T17:36:59.465Z,32.50
2019-05-28T17:39:27.876Z,32.60
2019-05-28T17:41:56.475Z,32.90
2019-05-28T17:44:24.897Z,31.70
2019-05-28T17:46:53.411Z,31.40
2019-05-28T17:49:21.864Z,33.50
2019-05-28T17:51:50.308Z,32.80
2019-05-28T17:54:18.800Z,31.90
2019-05-28T17:56:47.286Z,32.70
2019-05-28T17:59:15.730Z,31.80
2019-05-28T18:01:46.536Z,33.30
2019-05-28T18:04:14.343Z,32.80
2019-05-28T18:06:42.831Z,32.80
2019-05-28T18:09:13.002Z,33.30
2019-05-28T18:11:41.444Z,35.10
2019-05-28T18:14:09.906Z,37.10
2019-05-28T18:16:38.328Z,36.30
2019-05-28T18:19:06.868Z,37.00
2019-05-28T18:21:35.293Z,36.50
2019-05-28T18:24:03.915Z,37.30
2019-05-28T18:26:32.372Z,37.60
2019-05-28T18:29:00.915Z,35.70
2019-05-28T18:31:29.322Z,37.00
2019-05-28T18:33:57.796Z,37.90
2019-05-28T18:36:26.300Z,38.50
2019-05-28T18:38:54.816Z,37.50
2019-05-28T18:41:23.256Z,36.90
2019-05-28T18:43:51.691Z,36.90
2019-05-28T18:46:20.136Z,37.90
2019-05-28T18:48:48.609Z,37.50
2019-05-28T18:51:18.672Z,37.40
2019-05-28T18:53:47.133Z,37.30
2019-05-28T18:56:17.816Z,39.80
2019-05-28T18:58:45.804Z,40.50
2019-05-28T19:01:14.300Z,40.30
2019-05-28T19:03:42.742Z,40.40
2019-05-28T19:06:11.381Z,37.10
2019-05-28T19:08:39.893Z,41.20
2019-05-28T19:11:08.435Z,37.70
2019-05-28T19:13:36.850Z,38.20
2019-05-28T19:16:05.322Z,36.60
2019-05-28T19:18:33.853Z,36.70
2019-05-28T19:21:02.444Z,34.80
2019-05-28T19:23:30.949Z,35.40
2019-05-28T19:25:59.462Z,35.50
2019-05-28T19:28:27.919Z,35.80
2019-05-28T19:30:56.624Z,35.80
2019-05-28T19:33:25.053Z,36.90
2019-05-28T19:35:54.228Z,37.00
2019-05-28T19:38:22.887Z,37.30
2019-05-28T19:40:51.352Z,38.70
2019-05-28T19:43:19.774Z,36.30
2019-05-28T19:45:48.240Z,38.30
2019-05-28T19:48:16.698Z,40.20
2019-05-28T19:50:45.152Z,40.70
2019-05-28T19:53:13.643Z,40.40
2019-05-28T19:55:42.777Z,42.00
2019-05-28T19:58:11.223Z,41.90
2019-05-28T20:00:39.740Z,42.60
2019-05-28T20:03:08.183Z,40.00
2019-05-28T20:05:38.170Z,38.20
2019-05-28T20:08:06.736Z,40.20
2019-05-28T20:10:35.299Z,40.10
2019-05-28T20:13:03.895Z,40.60
2019-05-28T20:15:32.421Z,39.30
2019-05-28T20:18:01.060Z,40.10
2019-05-28T20:20:29.610Z,40.90
2019-05-28T20:22:58.043Z,40.00
2019-05-28T20:25:26.587Z,40.60
2019-05-28T20:27:56.045Z,41.80
2019-05-28T20:30:25.086Z,40.50
2019-05-28T20:32:55.106Z,41.20
2019-05-28T20:35:23.754Z,41.00
2019-05-28T20:37:52.216Z,41.10
2019-05-28T20:40:20.998Z,42.10
2019-05-28T20:42:49.451Z,39.20
2019-05-28T20:45:18.211Z,41.00
2019-05-28T20:47:46.658Z,39.00
2019-05-28T20:50:15.519Z,39.40
2019-05-28T20:52:43.986Z,37.90
2019-05-28T20:55:12.961Z,37.20
2019-05-28T20:57:41.399Z,37.90
2019-05-28T21:00:10.922Z,38.70
2019-05-28T21:02:39.922Z,38.70
2019-05-28T21:05:08.913Z,40.00
2019-05-28T21:07:37.482Z,40.70
2019-05-28T21:10:08.573Z,38.50
2019-05-28T21:12:43.927Z,38.50
2019-05-28T21:15:09.668Z,38.10
2019-05-28T21:17:38.378Z,38.50
2019-05-28T21:20:08.160Z,38.40
2019-05-28T21:22:36.606Z,40.20
2019-05-28T21:25:07.072Z,40.10
2019-05-28T21:27:35.520Z,38.60
2019-05-28T21:30:06.290Z,40.00
2019-05-28T21:32:34.799Z,38.20
2019-05-28T21:35:03.488Z,40.20
2019-05-28T21:37:31.925Z,40.10
2019-05-28T21:40:00.363Z,37.00
2019-05-28T21:42:28.973Z,36.80
2019-05-28T21:44:58.066Z,38.50
2019-05-28T21:47:26.634Z,40.00
2019-05-28T21:49:55.071Z,42.20
2019-05-28T21:52:25.037Z,41.90
2019-05-28T21:54:53.495Z,43.90
2019-05-28T21:57:21.923Z,44.00
2019-05-28T21:59:50.531Z,48.10
2019-05-28T22:02:19.207Z,48.40
2019-05-28T22:04:47.669Z,49.70
2019-05-28T22:07:16.106Z,50.50
2019-05-28T22:09:44.626Z,51.90
2019-05-28T22:12:13.130Z,52.60
2019-05-28T22:14:41.563Z,52.80
2019-05-28T22:17:13.023Z,54.50
2019-05-28T22:19:40.154Z,58.20
2019-05-28T22:22:08.921Z,60.10
2019-05-28T22:24:37.486Z,60.00
2019-05-28T22:27:05.970Z,60.20
2019-05-28T22:29:34.479Z,59.40
2019-05-28T22:32:02.984Z,60.30
2019-05-28T22:34:31.495Z,61.40
2019-05-28T22:37:02.443Z,61.50
2019-05-28T22:39:31.089Z,61.60
2019-05-28T22:41:59.693Z,61.60
2019-05-28T22:44:28.274Z,61.60
2019-05-28T22:46:57.074Z,61.30
2019-05-28T22:49:25.668Z,62.30
2019-05-28T22:51:54.188Z,62.00
2019-05-28T22:54:22.639Z,60.60
2019-05-28T22:56:51.074Z,61.90
2019-05-28T22:59:19.500Z,61.70
2019-05-28T23:01:47.947Z,61.70
2019-05-28T23:04:16.381Z,61.90
2019-05-28T23:06:44.807Z,62.50
2019-05-28T23:09:13.228Z,62.30
2019-05-28T23:11:41.679Z,60.40
2019-05-28T23:14:10.381Z,59.40
2019-05-28T23:16:38.956Z,58.60
2019-05-28T23:19:08.643Z,57.90
2019-05-28T23:21:37.318Z,59.60
2019-05-28T23:24:05.739Z,60.00
2019-05-28T23:26:34.281Z,60.60
2019-05-28T23:29:03.713Z,61.30
2019-05-28T23:31:32.286Z,60.60
2019-05-28T23:34:00.716Z,61.80
2019-05-28T23:36:29.166Z,62.70
2019-05-28T23:38:57.580Z,62.50
2019-05-28T23:41:26.023Z,62.10
2019-05-28T23:44:02.136Z,62.30
2019-05-28T23:46:24.642Z,62.50
2019-05-28T23:48:53.063Z,63.00
2019-05-28T23:51:21.483Z,63.90
2019-05-28T23:53:49.938Z,64.20
2019-05-28T23:56:18.354Z,64.50
2019-05-28T23:58:46.795Z,65.30
